Time;durP1;ratioP1;P1;durP2;ratioP2;P2;SDS_P1;SDS_P2;PMS_P1;PMS_P2;Temp;Humidity;BMP_temperature;BMP_pressure;BME280_temperature;BME280_humidity;BME280_pressure;Samples;Min_cycle;Max_cycle;Signal;HPM_P1;HPM_P2
2023/04/20 00:00:33;;;;;;;;;;;;;;;17.62;52.71;102134.13;1272201;23;626;-72
2023/04/20 00:01:23;;;;;;;;;;;;;;;17.62;52.18;102130.56;1272193;23;1173;-71
2023/04/20 00:02:15;;;;;;;;;;;;;;;17.62;52.19;102128.72;1272508;23;697;-72
2023/04/20 00:03:06;;;;;;;;;;;;;;;17.60;52.40;102125.28;1271264;23;615;-72
2023/04/20 00:03:57;;;;;;;;;;;;;;;17.59;52.49;102128.94;1272435;23;691;-72
2023/04/20 00:04:47;;;;;;;;;;;;;;;17.58;52.55;102124.53;1272221;23;626;-72
2023/04/20 00:05:38;;;;;;;;;;;;;;;17.58;52.57;102126.34;1272304;23;693;-72
2023/04/20 00:06:29;;;;;;;;;;;;;;;17.57;52.83;102128.19;1274085;23;622;-72
2023/04/20 00:07:20;;;;;;;;;;;;;;;17.57;52.35;102122.81;1272227;23;614;-72
2023/04/20 00:08:10;;;;;;;;;;;;;;;17.57;52.77;102122.81;1272340;23;704;-72
2023/04/20 00:09:01;;;;;;;;;;;;;;;17.58;52.62;102123.66;1272619;23;614;-72
2023/04/20 00:09:51;;;;;;;;;;;;;;;17.57;52.50;102120.09;1272130;23;634;-72
2023/04/20 00:10:42;;;;;;;;;;;;;;;17.58;52.62;102120.97;1272494;23;677;-72
2023/04/20 00:11:32;;;;;;;;;;;;;;;17.57;53.10;102117.41;1274229;23;598;-72
2023/04/20 00:12:22;;;;;;;;;;;;;;;17.55;53.15;102110.44;1272462;23;654;-72
2023/04/20 00:13:13;;;;;;;;;;;;;;;17.54;52.57;102109.56;1272169;23;590;-72
2023/04/20 00:14:03;;;;;;;;;;;;;;;17.54;52.79;102114.09;1272282;23;594;-72
2023/04/20 00:14:54;;;;;;;;;;;;;;;17.54;53.30;102112.28;1274268;23;654;-72
2023/04/20 00:15:44;;;;;;;;;;;;;;;17.52;52.60;102105.28;1272449;23;621;-72
2023/04/20 00:16:35;;;;;;;;;;;;;;;17.51;53.12;102103.53;1272340;23;666;-72
2023/04/20 00:17:25;;;;;;;;;;;;;;;17.50;53.40;102101.81;1272252;23;598;-72
2023/04/20 00:18:16;;;;;;;;;;;;;;;17.47;52.70;102102.91;1272472;23;630;-72
2023/04/20 00:19:06;;;;;;;;;;;;;;;17.48;53.23;102093.84;1272344;23;665;-72
2023/04/20 00:19:57;;;;;;;;;;;;;;;17.49;52.81;102095.56;1272431;23;666;-72
2023/04/20 00:20:47;;;;;;;;;;;;;;;17.49;52.57;102100.97;1272320;23;622;-71
2023/04/20 00:21:37;;;;;;;;;;;;;;;17.51;52.68;102100.84;1272405;23;681;-72
2023/04/20 00:22:29;;;;;;;;;;;;;;;17.49;53.41;102100.09;1272383;23;621;-72
2023/04/20 00:23:20;;;;;;;;;;;;;;;17.47;53.20;102099.34;1272310;23;677;-72
2023/04/20 00:24:10;;;;;;;;;;;;;;;17.44;53.05;102097.72;1273952;23;649;-72
2023/04/20 00:25:00;;;;;;;;;;;;;;;17.45;52.84;102094.06;1272508;23;637;-72
2023/04/20 00:25:51;;;;;;;;;;;;;;;17.45;53.47;102090.50;1272430;23;575;-72
2023/04/20 00:26:41;;;;;;;;;;;;;;;17.46;53.50;102092.25;1271687;23;641;-72
2023/04/20 00:27:32;;;;;;;;;;;;;;;17.44;52.88;102091.47;1271146;23;678;-72
2023/04/20 00:28:22;;;;;;;;;;;;;;;17.44;53.26;102084.25;1272853;23;672;-72
2023/04/20 00:29:13;;;;;;;;;;;;;;;17.44;53.06;102086.97;1272032;23;1881;-72
2023/04/20 00:30:03;;;;;;;;;;;;;;;17.44;52.96;102089.66;1271973;23;649;-72
2023/04/20 00:30:53;;;;;;;;;;;;;;;17.42;53.05;102078.13;1272269;23;692;-72
2023/04/20 00:31:44;;;;;;;;;;;;;;;17.45;53.48;102082.44;1273927;23;650;-72
2023/04/20 00:32:34;;;;;;;;;;;;;;;17.43;53.41;102087.94;1272359;23;646;-72
2023/04/20 00:33:25;;;;;;;;;;;;;;;17.41;53.37;102072.84;1272724;23;654;-71
2023/04/20 00:34:15;;;;;;;;;;;;;;;17.40;52.97;102079.19;1272773;23;626;-72
2023/04/20 00:35:06;;;;;;;;;;;;;;;17.39;53.28;102072.09;1272712;23;638;-72
2023/04/20 00:35:56;;;;;;;;;;;;;;;17.38;53.16;102076.63;1272416;23;633;-72
2023/04/20 00:36:47;;;;;;;;;;;;;;;17.37;53.50;102074.06;1272940;23;637;-72
2023/04/20 00:37:37;;;;;;;;;;;;;;;17.34;53.33;102072.47;1273889;23;657;-72
2023/04/20 00:38:27;;;;;;;;;;;;;;;17.35;53.58;102071.47;1272657;23;704;-72
2023/04/20 00:39:18;;;;;;;;;;;;;;;17.35;53.49;102064.25;1272451;23;610;-72
2023/04/20 00:40:09;;;;;;;;;;;;;;;17.35;53.70;102063.41;1271546;23;677;-72
2023/04/20 00:40:59;;;;;;;;;;;;;;;17.35;53.21;102061.56;1273116;23;621;-72
2023/04/20 00:41:49;;;;;;;;;;;;;;;17.34;53.96;102062.53;1273398;23;875;-72
2023/04/20 00:42:41;;;;;;;;;;;;;;;17.34;53.83;102061.69;1274432;23;747;-72
2023/04/20 00:43:31;;;;;;;;;;;;;;;17.34;53.16;102064.38;1272494;23;618;-72
2023/04/20 00:44:21;;;;;;;;;;;;;;;17.34;53.63;102059.84;1272707;23;681;-72
2023/04/20 00:45:12;;;;;;;;;;;;;;;17.34;53.57;102056.28;1271875;23;748;-72
2023/04/20 00:46:02;;;;;;;;;;;;;;;17.33;53.79;102050.03;1271441;23;658;-72
2023/04/20 00:46:55;;;;;;;;;;;;;;;17.34;53.98;102050.91;1273313;23;693;-72
2023/04/20 00:47:46;;;;;;;;;;;;;;;17.31;53.98;102048.44;1273575;23;614;-72
2023/04/20 00:48:36;;;;;;;;;;;;;;;17.30;54.03;102047.56;1271554;23;634;-72
2023/04/20 00:49:28;;;;;;;;;;;;;;;17.31;53.98;102048.44;1272944;23;1922;-72
2023/04/20 00:50:19;;;;;;;;;;;;;;;17.28;53.58;102043.25;1273408;23;633;-72
2023/04/20 00:51:09;;;;;;;;;;;;;;;17.29;53.82;102044.97;1273622;23;665;-72
2023/04/20 00:52:00;;;;;;;;;;;;;;;17.29;53.61;102043.16;1271539;23;834;-72
2023/04/20 00:52:50;;;;;;;;;;;;;;;17.27;53.88;102041.53;1274490;23;625;-72
2023/04/20 00:53:41;;;;;;;;;;;;;;;17.29;53.82;102044.97;1272759;23;645;-72
2023/04/20 00:54:31;;;;;;;;;;;;;;;17.28;54.15;102038.72;1274559;23;641;-72
2023/04/20 00:55:21;;;;;;;;;;;;;;;17.27;53.88;102036.16;1272120;23;638;-71
2023/04/20 00:56:12;;;;;;;;;;;;;;;17.27;53.62;102037.00;1271485;23;689;-72
2023/04/20 00:57:02;;;;;;;;;;;;;;;17.27;54.02;102034.31;1273110;23;669;-71
2023/04/20 00:57:53;;;;;;;;;;;;;;;17.28;53.98;102029.78;1273295;23;732;-72
2023/04/20 00:58:44;;;;;;;;;;;;;;;17.26;54.19;102029.03;1272740;23;730;-72
2023/04/20 00:59:34;;;;;;;;;;;;;;;17.25;53.96;102028.19;1272294;23;602;-72
2023/04/20 01:00:26;;;;;;;;;;;;;;;17.26;53.50;102034.44;1272595;23;700;-72
2023/04/20 01:01:17;;;;;;;;;;;;;;;17.26;53.76;102029.03;1272852;23;657;-72
2023/04/20 01:02:07;;;;;;;;;;;;;;;17.23;54.06;102024.72;1272841;23;681;-72
2023/04/20 01:02:57;;;;;;;;;;;;;;;17.24;53.76;102017.50;1272852;23;680;-73
2023/04/20 01:03:48;;;;;;;;;;;;;;;17.23;54.43;102015.78;1272659;23;688;-73
2023/04/20 01:04:38;;;;;;;;;;;;;;;17.24;54.38;102017.50;1271819;23;609;-73
2023/04/20 01:05:29;;;;;;;;;;;;;;;17.21;53.81;102013.22;1272625;23;1028;-73
2023/04/20 01:06:20;;;;;;;;;;;;;;;17.23;53.79;102021.19;1271174;23;664;-73
2023/04/20 01:07:10;;;;;;;;;;;;;;;17.20;54.19;102016.00;1271771;23;630;-73
2023/04/20 01:08:00;;;;;;;;;;;;;;;17.21;53.79;102013.22;1272727;23;668;-71
2023/04/20 01:08:51;;;;;;;;;;;;;;;17.21;54.29;102012.34;1273560;23;715;-73
2023/04/20 01:09:41;;;;;;;;;;;;;;;17.22;54.23;102011.38;1272329;23;669;-73
2023/04/20 01:10:32;;;;;;;;;;;;;;;17.21;54.47;102015.91;1271567;23;657;-73
2023/04/20 01:11:22;;;;;;;;;;;;;;;17.21;54.40;102015.03;1272911;23;638;-73
2023/04/20 01:12:13;;;;;;;;;;;;;;;17.19;54.21;102011.63;1273311;23;685;-73
2023/04/20 01:13:03;;;;;;;;;;;;;;;17.17;54.05;102009.03;1274322;23;669;-73
2023/04/20 01:13:53;;;;;;;;;;;;;;;17.19;54.43;102006.25;1272405;23;658;-73
2023/04/20 01:14:44;;;;;;;;;;;;;;;17.20;54.02;101999.84;1272247;23;665;-73
2023/04/20 01:15:34;;;;;;;;;;;;;;;17.18;54.45;102007.22;1271338;23;626;-73
2023/04/20 01:16:25;;;;;;;;;;;;;;;17.16;54.30;102001.94;1273037;23;688;-73
2023/04/20 01:17:16;;;;;;;;;;;;;;;17.15;54.33;102000.22;1273523;23;665;-72
2023/04/20 01:18:08;;;;;;;;;;;;;;;17.13;53.99;102001.31;1272549;23;614;-70
2023/04/20 01:18:58;;;;;;;;;;;;;;;17.13;54.28;102001.31;1272474;23;598;-72
2023/04/20 01:19:49;;;;;;;;;;;;;;;17.13;54.71;101998.59;1272579;23;662;-72
2023/04/20 01:20:39;;;;;;;;;;;;;;;17.15;54.23;101999.34;1271489;23;602;-72
2023/04/20 01:21:30;;;;;;;;;;;;;;;17.13;54.43;102004.84;1272678;23;641;-72
2023/04/20 01:22:21;;;;;;;;;;;;;;;17.15;54.32;101984.06;1272628;23;636;-72
2023/04/20 01:23:11;;;;;;;;;;;;;;;17.15;54.23;101992.13;1272583;23;668;-72
2023/04/20 01:24:02;;;;;;;;;;;;;;;17.17;54.04;101994.72;1272789;23;621;-72
2023/04/20 01:24:53;;;;;;;;;;;;;;;17.16;54.55;101993.00;1274348;23;676;-71
2023/04/20 01:25:43;;;;;;;;;;;;;;;17.16;54.47;101990.31;1271566;23;664;-73
2023/04/20 01:26:33;;;;;;;;;;;;;;;17.16;54.27;101993.00;1272367;23;638;-72
2023/04/20 01:27:24;;;;;;;;;;;;;;;17.13;54.41;101991.38;1272754;23;675;-72
2023/04/20 01:28:14;;;;;;;;;;;;;;;17.13;54.26;101990.53;1274140;23;632;-72
2023/04/20 01:29:05;;;;;;;;;;;;;;;17.13;54.05;101991.38;1272658;23;641;-72
2023/04/20 01:29:55;;;;;;;;;;;;;;;17.12;54.18;101988.81;1271119;23;642;-72
2023/04/20 01:30:46;;;;;;;;;;;;;;;17.11;54.26;101979.88;1272858;23;621;-72
2023/04/20 01:31:36;;;;;;;;;;;;;;;17.11;54.45;101992.47;1273541;23;621;-72
2023/04/20 01:32:26;;;;;;;;;;;;;;;17.13;54.71;101982.44;1272404;23;590;-73
2023/04/20 01:33:17;;;;;;;;;;;;;;;17.07;54.31;101972.13;1272702;23;621;-72
2023/04/20 01:34:07;;;;;;;;;;;;;;;17.08;54.67;101977.38;1271610;23;672;-72
2023/04/20 01:34:58;;;;;;;;;;;;;;;17.09;54.18;101980.94;1271238;23;680;-72
2023/04/20 01:35:48;;;;;;;;;;;;;;;17.08;54.78;101979.22;1272328;23;668;-72
2023/04/20 01:36:38;;;;;;;;;;;;;;;17.09;54.56;101975.56;1273040;23;684;-72
2023/04/20 01:37:29;;;;;;;;;;;;;;;17.08;54.50;101977.38;1271994;23;629;-72
2023/04/20 01:38:20;;;;;;;;;;;;;;;17.09;54.14;101973.72;1272390;23;626;-72
2023/04/20 01:39:10;;;;;;;;;;;;;;;17.08;54.21;101977.38;1272502;23;657;-72
2023/04/20 01:40:01;;;;;;;;;;;;;;;17.09;54.41;101978.25;1272391;23;657;-72
2023/04/20 01:40:51;;;;;;;;;;;;;;;17.09;53.95;101967.47;1274072;23;673;-72
2023/04/20 01:41:42;;;;;;;;;;;;;;;17.08;54.35;101966.63;1272512;23;692;-72
2023/04/20 01:42:32;;;;;;;;;;;;;;;17.07;54.55;101964.03;1274280;23;696;-73
2023/04/20 01:43:22;;;;;;;;;;;;;;;17.06;54.36;101963.16;1272285;23;662;-72
2023/04/20 01:44:13;;;;;;;;;;;;;;;17.06;54.34;101967.69;1272274;23;642;-72
2023/04/20 01:45:03;;;;;;;;;;;;;;;17.06;54.26;101959.63;1271863;23;664;-72
2023/04/20 01:45:54;;;;;;;;;;;;;;;17.05;54.69;101963.28;1272465;23;642;-72
2023/04/20 01:46:44;;;;;;;;;;;;;;;17.05;54.64;101955.22;1271284;23;653;-72
2023/04/20 01:47:35;;;;;;;;;;;;;;;17.04;54.14;101959.72;1272866;23;676;-72
2023/04/20 01:48:25;;;;;;;;;;;;;;;17.02;54.75;101951.75;1273233;23;645;-72
2023/04/20 01:49:15;;;;;;;;;;;;;;;17.02;54.39;101965.22;1271674;23;1893;-72
2023/04/20 01:50:06;;;;;;;;;;;;;;;17.04;54.85;101953.47;1273464;23;664;-72
2023/04/20 01:50:56;;;;;;;;;;;;;;;17.03;54.56;101955.31;1272423;23;609;-72
2023/04/20 01:51:47;;;;;;;;;;;;;;;17.00;54.22;101956.44;1271941;23;645;-71
2023/04/20 01:52:37;;;;;;;;;;;;;;;17.02;54.08;101958.16;1271233;23;646;-72
2023/04/20 01:53:28;;;;;;;;;;;;;;;16.99;55.28;101957.41;1272227;23;633;-72
2023/04/20 01:54:18;;;;;;;;;;;;;;;16.96;54.60;101952.25;1272891;23;637;-71
2023/04/20 01:55:10;;;;;;;;;;;;;;;16.97;54.74;101959.34;1273860;23;617;-71
2023/04/20 01:56:00;;;;;;;;;;;;;;;16.99;55.01;101962.78;1271705;23;610;-71
2023/04/20 01:56:51;;;;;;;;;;;;;;;16.98;54.44;101961.06;1272716;23;636;-71
2023/04/20 01:57:43;;;;;;;;;;;;;;;16.97;54.67;101963.88;1272404;23;1040;-71
2023/04/20 01:58:34;;;;;;;;;;;;;;;16.95;54.70;101955.91;1272389;23;673;-71
2023/04/20 01:59:24;;;;;;;;;;;;;;;16.95;54.86;101955.03;1271717;23;665;-71
2023/04/20 02:00:15;;;;;;;;;;;;;;;16.91;55.15;101951.72;1272526;23;629;-71
2023/04/20 02:01:05;;;;;;;;;;;;;;;16.93;54.87;101947.06;1271656;23;673;-71
2023/04/20 02:01:56;;;;;;;;;;;;;;;16.95;54.66;101947.81;1272325;23;708;-71
2023/04/20 02:02:46;;;;;;;;;;;;;;;16.94;54.64;101946.09;1274137;23;606;-71
2023/04/20 02:03:37;;;;;;;;;;;;;;;16.94;54.64;101943.41;1272491;23;673;-71
2023/04/20 02:04:27;;;;;;;;;;;;;;;16.95;54.68;101947.81;1271958;23;657;-71
2023/04/20 02:05:17;;;;;;;;;;;;;;;16.95;54.88;101949.66;1272331;23;660;-71
2023/04/20 02:06:08;;;;;;;;;;;;;;;16.95;54.39;101934.38;1272533;23;626;-71
2023/04/20 02:06:58;;;;;;;;;;;;;;;16.93;55.03;101940.84;1272274;23;626;-71
2023/04/20 02:07:49;;;;;;;;;;;;;;;16.93;55.04;101932.75;1271909;23;645;-71
2023/04/20 02:08:39;;;;;;;;;;;;;;;16.93;54.63;101935.44;1274287;23;653;-71
2023/04/20 02:09:30;;;;;;;;;;;;;;;16.91;54.41;101937.38;1272461;23;1909;-71
2023/04/20 02:10:20;;;;;;;;;;;;;;;16.89;54.57;101934.81;1272259;23;794;-71
2023/04/20 02:11:10;;;;;;;;;;;;;;;16.90;54.50;101939.22;1272394;23;649;-71
2023/04/20 02:12:02;;;;;;;;;;;;;;;16.92;54.91;101934.59;1272686;23;618;-71
2023/04/20 02:12:52;;;;;;;;;;;;;;;16.92;54.50;101939.97;1273550;23;641;-72
2023/04/20 02:13:42;;;;;;;;;;;;;;;16.94;54.58;101942.56;1272553;23;1009;-72
2023/04/20 02:14:33;;;;;;;;;;;;;;;16.92;54.41;101937.28;1272328;23;893;-72
2023/04/20 02:15:24;;;;;;;;;;;;;;;16.91;54.34;101926.63;1274134;23;625;-71
2023/04/20 02:16:14;;;;;;;;;;;;;;;16.91;54.83;101927.47;1271257;23;685;-71
2023/04/20 02:17:05;;;;;;;;;;;;;;;16.91;54.73;101932.00;1273070;23;664;-71
2023/04/20 02:17:56;;;;;;;;;;;;;;;16.89;54.66;101933.94;1273564;23;609;-71
2023/04/20 02:18:46;;;;;;;;;;;;;;;16.88;54.78;101924.16;1272412;23;602;-72
2023/04/20 02:19:36;;;;;;;;;;;;;;;16.88;54.79;101926.84;1272704;23;646;-71
2023/04/20 02:20:27;;;;;;;;;;;;;;;16.90;54.64;101922.22;1272647;23;629;-72
2023/04/20 02:21:17;;;;;;;;;;;;;;;16.89;54.98;101924.03;1274339;23;760;-71
2023/04/20 02:22:08;;;;;;;;;;;;;;;16.89;54.70;101924.03;1272255;23;653;-71
2023/04/20 02:22:58;;;;;;;;;;;;;;;16.89;54.67;101918.66;1272362;23;656;-71
2023/04/20 02:23:49;;;;;;;;;;;;;;;16.89;54.67;101918.66;1272469;23;700;-71
2023/04/20 02:24:40;;;;;;;;;;;;;;;16.90;54.32;101922.22;1273966;23;747;-71
2023/04/20 02:25:30;;;;;;;;;;;;;;;16.89;54.56;101921.34;1273273;23;609;-71
2023/04/20 02:26:21;;;;;;;;;;;;;;;16.87;54.97;101912.50;1271688;23;673;-71
2023/04/20 02:27:11;;;;;;;;;;;;;;;16.87;54.44;101915.22;1274141;23;602;-71
2023/04/20 02:28:02;;;;;;;;;;;;;;;16.88;54.59;101905.31;1272255;23;669;-71
2023/04/20 02:28:52;;;;;;;;;;;;;;;16.88;54.72;101911.53;1273170;23;727;-71
2023/04/20 02:29:43;;;;;;;;;;;;;;;16.88;54.42;101911.53;1272379;23;666;-71
2023/04/20 02:30:33;;;;;;;;;;;;;;;16.87;54.51;101912.50;1272440;23;669;-71
2023/04/20 02:31:23;;;;;;;;;;;;;;;16.87;54.99;101909.81;1272277;23;614;-71
2023/04/20 02:32:14;;;;;;;;;;;;;;;16.86;54.59;101910.78;1272477;23;642;-71
2023/04/20 02:33:04;;;;;;;;;;;;;;;16.84;54.71;101899.28;1274294;23;642;-70
2023/04/20 02:33:55;;;;;;;;;;;;;;;16.79;54.56;101904.16;1272445;23;704;-71
2023/04/20 02:34:45;;;;;;;;;;;;;;;16.80;54.53;101897.81;1274027;23;657;-70
2023/04/20 02:35:35;;;;;;;;;;;;;;;16.81;54.86;101899.53;1272443;23;649;-70
2023/04/20 02:36:27;;;;;;;;;;;;;;;16.80;55.02;101897.81;1272510;23;661;-70
2023/04/20 02:37:17;;;;;;;;;;;;;;;16.80;54.80;101895.13;1271863;23;669;-71
2023/04/20 02:38:08;;;;;;;;;;;;;;;16.81;54.66;101894.16;1272266;23;653;-70
2023/04/20 02:38:58;;;;;;;;;;;;;;;16.82;55.15;101892.31;1272425;23;661;-71
2023/04/20 02:39:48;;;;;;;;;;;;;;;16.82;54.91;101895.88;1272289;23;681;-71
2023/04/20 02:40:39;;;;;;;;;;;;;;;16.83;54.99;101889.50;1271587;23;641;-71
2023/04/20 02:41:29;;;;;;;;;;;;;;;16.83;54.92;101885.97;1272350;23;664;-71
2023/04/20 02:42:20;;;;;;;;;;;;;;;16.73;55.28;101888.47;1272458;23;618;-71
2023/04/20 02:43:10;;;;;;;;;;;;;;;16.70;55.10;101885.13;1272308;23;688;-71
2023/04/20 02:44:01;;;;;;;;;;;;;;;16.69;55.07;101886.09;1272327;23;637;-71
2023/04/20 02:44:51;;;;;;;;;;;;;;;16.71;55.57;101892.22;1272355;23;686;-71
2023/04/20 02:45:42;;;;;;;;;;;;;;;16.70;55.17;101885.13;1271625;23;637;-71
2023/04/20 02:46:32;;;;;;;;;;;;;;;16.69;55.27;101878.88;1274402;23;638;-72
2023/04/20 02:47:22;;;;;;;;;;;;;;;16.65;55.44;101880.13;1272607;23;630;-71
2023/04/20 02:48:13;;;;;;;;;;;;;;;16.67;55.37;101880.81;1271709;23;614;-71
2023/04/20 02:49:03;;;;;;;;;;;;;;;16.65;55.47;101872.91;1272296;23;598;-71
2023/04/20 02:49:54;;;;;;;;;;;;;;;16.67;55.96;101865.53;1271629;23;700;-71
2023/04/20 02:50:45;;;;;;;;;;;;;;;16.64;55.15;101870.31;1271683;23;674;-71
2023/04/20 02:51:35;;;;;;;;;;;;;;;16.61;55.68;101873.19;1272690;23;676;-71
2023/04/20 02:52:25;;;;;;;;;;;;;;;16.57;55.23;101872.56;1272543;23;658;-72
2023/04/20 02:53:16;;;;;;;;;;;;;;;16.59;55.57;101869.75;1271583;23;705;-71
2023/04/20 02:54:06;;;;;;;;;;;;;;;16.61;55.41;101867.81;1272791;23;629;-71
2023/04/20 02:54:57;;;;;;;;;;;;;;;16.59;55.80;101861.69;1273205;23;673;-72
2023/04/20 02:55:47;;;;;;;;;;;;;;;16.59;55.10;101864.38;1272086;23;630;-71
2023/04/20 02:56:37;;;;;;;;;;;;;;;16.57;55.74;101858.25;1272525;23;880;-71
2023/04/20 02:57:28;;;;;;;;;;;;;;;16.62;55.67;101864.16;1272527;23;677;-72
2023/04/20 02:58:18;;;;;;;;;;;;;;;16.64;55.50;101864.94;1271793;23;618;-72
2023/04/20 02:59:09;;;;;;;;;;;;;;;16.65;54.99;101864.81;1272610;23;896;-71
2023/04/20 03:00:00;;;;;;;;;;;;;;;16.62;55.33;101861.47;1270784;23;657;-71
2023/04/20 03:00:50;;;;;;;;;;;;;;;16.62;55.46;101862.31;1272168;23;677;-71
2023/04/20 03:01:41;;;;;;;;;;;;;;;16.59;55.34;101849.09;1272271;23;1063;-71
2023/04/20 03:02:31;;;;;;;;;;;;;;;16.59;55.34;101845.53;1271845;23;578;-71
2023/04/20 03:03:22;;;;;;;;;;;;;;;16.62;55.86;101850.69;1272667;23;662;-71
2023/04/20 03:04:12;;;;;;;;;;;;;;;16.62;55.48;101853.38;1272558;23;680;-71
2023/04/20 03:05:03;;;;;;;;;;;;;;;16.56;55.39;101851.13;1272842;23;777;-71
2023/04/20 03:05:53;;;;;;;;;;;;;;;16.59;55.65;101853.59;1273118;23;751;-71
2023/04/20 03:06:44;;;;;;;;;;;;;;;16.60;55.03;101848.13;1272242;23;626;-71
2023/04/20 03:07:34;;;;;;;;;;;;;;;16.59;55.43;101841.00;1271366;23;642;-71
2023/04/20 03:08:25;;;;;;;;;;;;;;;16.58;55.65;101843.81;1272938;23;592;-71
2023/04/20 03:09:15;;;;;;;;;;;;;;;16.58;55.34;101838.44;1273248;23;1940;-71
2023/04/20 03:10:05;;;;;;;;;;;;;;;16.59;55.27;101838.31;1272286;23;630;-71
2023/04/20 03:10:56;;;;;;;;;;;;;;;16.62;55.19;101835.41;1272411;23;677;-71
2023/04/20 03:11:46;;;;;;;;;;;;;;;16.58;55.26;101839.28;1272449;23;670;-72
2023/04/20 03:12:37;;;;;;;;;;;;;;;16.61;55.45;101822.06;1272475;23;622;-71
2023/04/20 03:13:27;;;;;;;;;;;;;;;16.63;55.36;101836.31;1274382;23;622;-72
2023/04/20 03:14:18;;;;;;;;;;;;;;;16.63;55.14;101836.31;1272200;23;807;-71
2023/04/20 03:15:08;;;;;;;;;;;;;;;16.60;55.16;101831.09;1272367;23;657;-72
2023/04/20 03:15:59;;;;;;;;;;;;;;;16.61;55.34;101836.38;1272386;23;649;-72
2023/04/20 03:16:50;;;;;;;;;;;;;;;16.61;55.43;101833.69;1273336;23;652;-72
2023/04/20 03:17:40;;;;;;;;;;;;;;;16.55;54.62;101828.75;1271885;23;625;-72
2023/04/20 03:18:30;;;;;;;;;;;;;;;16.48;55.51;101827.47;1271088;23;660;-72
2023/04/20 03:19:21;;;;;;;;;;;;;;;16.52;55.71;101828.13;1273048;23;808;-72
2023/04/20 03:20:12;;;;;;;;;;;;;;;16.55;55.56;101830.59;1273205;23;621;-72
2023/04/20 03:21:02;;;;;;;;;;;;;;;16.50;55.49;101833.59;1273290;23;734;-72
2023/04/20 03:21:53;;;;;;;;;;;;;;;16.49;55.66;101839.09;1272528;23;649;-71
2023/04/20 03:22:43;;;;;;;;;;;;;;;16.51;55.63;101829.09;1272586;23;602;-72
2023/04/20 03:23:33;;;;;;;;;;;;;;;16.52;55.25;101822.72;1272524;23;790;-72
2023/04/20 03:24:24;;;;;;;;;;;;;;;16.53;55.39;101829.84;1272182;23;559;-72
2023/04/20 03:25:15;;;;;;;;;;;;;;;16.55;55.59;101833.28;1272417;23;626;-72
2023/04/20 03:26:05;;;;;;;;;;;;;;;16.51;55.87;101823.69;1271674;23;633;-72
2023/04/20 03:26:55;;;;;;;;;;;;;;;16.48;55.63;101823.97;1272314;23;548;-72
2023/04/20 03:27:46;;;;;;;;;;;;;;;16.46;55.87;101821.38;1272432;23;681;-72
2023/04/20 03:28:37;;;;;;;;;;;;;;;16.47;55.61;101815.03;1272300;23;641;-72
2023/04/20 03:29:27;;;;;;;;;;;;;;;16.46;54.44;101815.13;1272172;23;1876;-72
2023/04/20 03:30:17;;;;;;;;;;;;;;;16.44;55.87;101819.78;1271553;23;630;-72
2023/04/20 03:31:08;;;;;;;;;;;;;;;16.48;55.73;101815.88;1272368;23;633;-72
2023/04/20 03:31:58;;;;;;;;;;;;;;;16.45;55.98;101818.81;1274205;23;676;-72
2023/04/20 03:32:49;;;;;;;;;;;;;;;16.49;55.84;101814.88;1272508;23;618;-72
2023/04/20 03:33:39;;;;;;;;;;;;;;;16.52;55.61;101820.03;1274292;23;605;-72
2023/04/20 03:34:30;;;;;;;;;;;;;;;16.48;55.67;101821.28;1272488;23;656;-72
2023/04/20 03:35:21;;;;;;;;;;;;;;;16.46;55.69;101817.81;1272565;23;649;-72
2023/04/20 03:36:11;;;;;;;;;;;;;;;16.47;55.71;101811.47;1272583;23;617;-72
2023/04/20 03:37:02;;;;;;;;;;;;;;;16.51;55.65;101816.50;1272553;23;719;-72
2023/04/20 03:37:53;;;;;;;;;;;;;;;16.51;55.63;101816.50;1271610;23;677;-72
2023/04/20 03:38:43;;;;;;;;;;;;;;;16.51;55.77;101813.81;1272273;23;614;-72
2023/04/20 03:39:33;;;;;;;;;;;;;;;16.53;55.64;101819.06;1272222;23;621;-72
2023/04/20 03:40:24;;;;;;;;;;;;;;;16.55;55.20;101814.44;1273808;23;697;-72
2023/04/20 03:41:14;;;;;;;;;;;;;;;16.56;55.42;101816.16;1272419;23;664;-72
2023/04/20 03:42:05;;;;;;;;;;;;;;;16.51;55.64;101818.31;1272526;23;637;-71
2023/04/20 03:42:55;;;;;;;;;;;;;;;16.42;55.43;101814.50;1271705;23;593;-71
2023/04/20 03:43:46;;;;;;;;;;;;;;;16.44;55.67;101820.63;1272393;23;661;-72
2023/04/20 03:44:36;;;;;;;;;;;;;;;16.42;55.69;101825.25;1272187;23;634;-72
2023/04/20 03:45:27;;;;;;;;;;;;;;;16.41;55.97;101814.63;1272341;23;661;-72
2023/04/20 03:46:17;;;;;;;;;;;;;;;16.43;55.63;101812.66;1271799;23;661;-72
2023/04/20 03:47:09;;;;;;;;;;;;;;;16.46;55.62;101817.81;1272218;23;633;-71
2023/04/20 03:47:59;;;;;;;;;;;;;;;16.45;55.50;101824.19;1272452;23;629;-72
2023/04/20 03:48:49;;;;;;;;;;;;;;;16.42;55.67;101813.63;1272185;23;602;-72
2023/04/20 03:49:40;;;;;;;;;;;;;;;16.35;55.84;101804.28;1272572;23;1922;-72
2023/04/20 03:50:30;;;;;;;;;;;;;;;16.39;55.96;101806.66;1272108;23;515;-72
2023/04/20 03:51:21;;;;;;;;;;;;;;;16.41;55.73;101811.91;1272502;23;618;-72
2023/04/20 03:52:11;;;;;;;;;;;;;;;16.42;55.55;101806.44;1272266;23;669;-72
2023/04/20 03:53:02;;;;;;;;;;;;;;;16.42;55.49;101808.25;1272416;23;614;-71
2023/04/20 03:53:52;;;;;;;;;;;;;;;16.44;55.66;101806.31;1272316;23;664;-72
2023/04/20 03:54:42;;;;;;;;;;;;;;;16.43;55.57;101804.59;1273964;23;622;-71
2023/04/20 03:55:33;;;;;;;;;;;;;;;16.46;55.54;101807.06;1272285;23;693;-71
2023/04/20 03:56:25;;;;;;;;;;;;;;;16.43;55.55;101810.84;1274049;23;621;-71
2023/04/20 03:57:16;;;;;;;;;;;;;;;16.42;55.59;101810.94;1272411;23;607;-72
2023/04/20 03:58:06;;;;;;;;;;;;;;;16.44;55.74;101812.56;1272402;23;629;-71
2023/04/20 03:58:57;;;;;;;;;;;;;;;16.49;55.66;101798.75;1272246;23;602;-71
2023/04/20 03:59:47;;;;;;;;;;;;;;;16.47;55.54;101801.56;1272473;23;815;-72
2023/04/20 04:00:37;;;;;;;;;;;;;;;16.45;55.59;101800.81;1273588;23;618;-71
2023/04/20 04:01:28;;;;;;;;;;;;;;;16.49;55.67;101801.44;1272079;23;1095;-71
2023/04/20 04:02:18;;;;;;;;;;;;;;;16.49;55.50;101796.91;1273913;23;601;-71
2023/04/20 04:03:09;;;;;;;;;;;;;;;16.49;55.32;101802.28;1272231;23;617;-72
2023/04/20 04:03:59;;;;;;;;;;;;;;;16.48;55.42;101803.25;1271442;23;646;-72
2023/04/20 04:04:49;;;;;;;;;;;;;;;16.38;55.66;101804.06;1272895;23;665;-71
2023/04/20 04:05:40;;;;;;;;;;;;;;;16.33;56.07;101797.19;1272780;23;641;-72
2023/04/20 04:06:31;;;;;;;;;;;;;;;16.33;55.65;101793.66;1272068;23;851;-71
2023/04/20 04:07:21;;;;;;;;;;;;;;;16.32;55.71;101795.47;1271892;23;630;-71
2023/04/20 04:08:12;;;;;;;;;;;;;;;16.35;55.44;101793.53;1274477;23;657;-71
2023/04/20 04:09:02;;;;;;;;;;;;;;;16.34;55.82;101792.66;1272762;23;622;-71
2023/04/20 04:09:53;;;;;;;;;;;;;;;16.34;55.63;101803.44;1272687;23;673;-71
2023/04/20 04:10:43;;;;;;;;;;;;;;;16.32;56.14;101782.03;1272521;23;669;-71
2023/04/20 04:11:34;;;;;;;;;;;;;;;16.35;55.70;101785.47;1272563;23;641;-71
2023/04/20 04:12:24;;;;;;;;;;;;;;;16.26;55.84;101779.81;1272901;23;618;-71
2023/04/20 04:13:15;;;;;;;;;;;;;;;16.26;56.04;101774.44;1272675;23;606;-71
2023/04/20 04:14:05;;;;;;;;;;;;;;;16.29;56.03;101784.97;1272397;23;661;-71
2023/04/20 04:14:55;;;;;;;;;;;;;;;16.30;56.25;101780.44;1272183;23;610;-71
2023/04/20 04:15:46;;;;;;;;;;;;;;;16.26;56.18;101782.50;1272825;23;697;-71
2023/04/20 04:16:36;;;;;;;;;;;;;;;16.23;55.91;101774.66;1274350;23;610;-71
2023/04/20 04:17:27;;;;;;;;;;;;;;;16.24;56.13;101771.00;1272633;23;626;-71
2023/04/20 04:18:17;;;;;;;;;;;;;;;16.29;55.54;101773.34;1272625;23;614;-71
2023/04/20 04:19:08;;;;;;;;;;;;;;;16.30;55.79;101770.50;1274243;23;672;-71
2023/04/20 04:19:58;;;;;;;;;;;;;;;16.34;55.63;101776.53;1271975;23;609;-70
2023/04/20 04:20:49;;;;;;;;;;;;;;;16.36;55.78;101771.03;1272481;23;625;-71
2023/04/20 04:21:40;;;;;;;;;;;;;;;16.35;55.49;101770.19;1272649;23;660;-71
2023/04/20 04:22:30;;;;;;;;;;;;;;;16.30;55.74;101775.91;1271564;23;645;-71
2023/04/20 04:23:21;;;;;;;;;;;;;;;16.30;56.01;101757.06;1266994;23;637;-71
2023/04/20 04:24:11;;;;;;;;;;;;;;;16.33;55.88;101764.91;1273024;23;688;-71
2023/04/20 04:25:02;;;;;;;;;;;;;;;16.35;55.70;101766.63;1271694;23;602;-71
2023/04/20 04:25:53;;;;;;;;;;;;;;;16.30;55.93;101769.69;1272801;23;661;-71
2023/04/20 04:26:44;;;;;;;;;;;;;;;16.30;55.72;101762.44;1271632;23;649;-71